Lavinia, Minnesota
Current Conditions -  °F | °C
As of 10:25 PM on Wednesday 28 Jan 2015 (Local Time) from KHIB Reporting Station
Haze Haze  
Wind Chill: 28°   Ceiling: 400
Heat Index: 28°   Visibility: 2.5mi
Dew Point: 25°   Wind: 3mph
Humidity: 88%   Direction: 300°WNW
Pressure: 29.81"   Gusts: NA
Location:  47.4158°N, 93.0053°W
Report Text: KHIB 290425Z AUTO 30003KT 2 1/2SM BR OVC004 M02/M04 A2981 RMK AO2 T10221039
Loading
Personal Weather Stations






























Interactive Weather Map New forecast layout! Learn more

10-Day Weather Forecast

Advertisements
Track Severe Weather on mobile